createdAt,value
2022-07-25T00:00:09.378Z,551.17
2022-07-25T00:02:35.931Z,541.08
2022-07-25T00:05:03.091Z,475.50
2022-07-25T00:07:29.577Z,527.38
2022-07-25T00:09:56.017Z,510.02
2022-07-25T00:12:22.935Z,534.92
2022-07-25T00:14:49.359Z,562.63
2022-07-25T00:17:15.704Z,563.67
2022-07-25T00:19:42.080Z,550.72
2022-07-25T00:22:08.395Z,527.65
2022-07-25T00:24:34.777Z,549.40
2022-07-25T00:27:02.752Z,572.55
2022-07-25T00:29:29.122Z,575.60
2022-07-25T00:31:55.440Z,565.42
2022-07-25T00:34:21.786Z,548.35
2022-07-25T00:36:48.064Z,586.80
2022-07-25T00:39:14.419Z,533.65
2022-07-25T00:41:40.795Z,563.83
2022-07-25T00:44:08.131Z,547.47
2022-07-25T00:46:37.903Z,570.05
2022-07-25T00:49:04.380Z,547.10
2022-07-25T00:51:30.771Z,593.40
2022-07-25T00:53:57.376Z,556.60
2022-07-25T00:56:24.590Z,578.60
2022-07-25T00:58:50.911Z,579.25
2022-07-25T01:01:17.370Z,578.63
2022-07-25T01:03:43.746Z,535.03
2022-07-25T01:06:10.138Z,577.97
2022-07-25T01:08:36.453Z,549.08
2022-07-25T01:11:03.027Z,549.50
2022-07-25T01:13:31.773Z,527.60
2022-07-25T01:15:58.215Z,518.72
2022-07-25T01:18:24.612Z,528.78
2022-07-25T01:20:50.991Z,522.75
2022-07-25T01:23:17.299Z,501.90
2022-07-25T01:25:43.863Z,514.55
2022-07-25T01:28:10.158Z,535.83
2022-07-25T01:30:36.524Z,511.08
2022-07-25T01:33:07.137Z,521.17
2022-07-25T01:35:33.857Z,464.95
2022-07-25T01:38:00.164Z,516.72
2022-07-25T01:40:26.576Z,568.75
2022-07-25T01:42:52.871Z,546.85
2022-07-25T01:45:19.176Z,557.10
2022-07-25T01:47:45.506Z,568.72
2022-07-25T01:50:11.838Z,571.95
2022-07-25T01:52:39.525Z,534.92
2022-07-25T01:55:06.221Z,531.75
2022-07-25T01:57:32.659Z,528.78
2022-07-25T01:59:59.291Z,525.22
2022-07-25T02:02:25.767Z,562.78
2022-07-25T02:04:52.225Z,554.30
2022-07-25T02:07:18.623Z,565.28
2022-07-25T02:09:44.927Z,495.08
2022-07-25T02:12:11.325Z,464.55
2022-07-25T02:14:37.643Z,483.33
2022-07-25T02:17:03.995Z,540.38
2022-07-25T02:19:30.412Z,554.60
2022-07-25T02:21:56.726Z,504.80
2022-07-25T02:24:23.118Z,527.63
2022-07-25T02:26:49.432Z,517.25
2022-07-25T02:29:15.766Z,542.17
2022-07-25T02:31:42.075Z,553.00
2022-07-25T02:34:08.750Z,491.15
2022-07-25T02:36:35.258Z,409.70
2022-07-25T02:39:01.751Z,503.90
2022-07-25T02:41:28.043Z,554.38
2022-07-25T02:43:54.368Z,507.52
2022-07-25T02:46:20.825Z,514.90
2022-07-25T02:48:47.211Z,530.30
2022-07-25T02:51:13.660Z,501.85
2022-07-25T02:53:56.723Z,501.77
2022-07-25T02:56:24.309Z,536.03
2022-07-25T02:58:50.955Z,506.73
2022-07-25T03:01:17.355Z,493.58
2022-07-25T03:03:43.798Z,550.78
2022-07-25T03:06:10.228Z,531.78
2022-07-25T03:08:36.628Z,521.08
2022-07-25T03:11:03.271Z,565.80
2022-07-25T03:13:29.616Z,541.47
2022-07-25T03:15:56.100Z,517.65
2022-07-25T03:18:22.397Z,517.72
2022-07-25T03:20:48.752Z,534.17
2022-07-25T03:23:15.058Z,552.78
2022-07-25T03:25:41.441Z,502.27
2022-07-25T03:28:07.796Z,531.97
2022-07-25T03:30:34.111Z,545.83
2022-07-25T03:33:00.403Z,426.80
2022-07-25T03:35:26.708Z,511.10
2022-07-25T03:37:53.322Z,501.40
2022-07-25T03:40:19.828Z,388.90
2022-07-25T03:42:46.205Z,481.83
2022-07-25T03:45:12.603Z,423.95
2022-07-25T03:47:38.934Z,409.30
2022-07-25T03:50:05.509Z,390.50
2022-07-25T03:52:31.952Z,421.98
2022-07-25T03:54:58.254Z,411.05
2022-07-25T03:57:24.567Z,482.65
2022-07-25T03:59:50.920Z,467.42
2022-07-25T04:02:17.327Z,426.88
2022-07-25T04:04:43.660Z,440.95
2022-07-25T04:07:10.112Z,533.17
2022-07-25T04:09:37.070Z,444.85
2022-07-25T04:12:03.519Z,367.23
2022-07-25T04:14:29.803Z,452.23
2022-07-25T04:16:56.173Z,449.27
2022-07-25T04:19:22.534Z,429.15
2022-07-25T04:21:48.909Z,437.50
2022-07-25T04:24:15.201Z,506.60
2022-07-25T04:26:41.541Z,493.08
2022-07-25T04:29:07.892Z,493.35
2022-07-25T04:31:34.265Z,449.38
2022-07-25T04:34:00.668Z,495.00
2022-07-25T04:36:26.987Z,484.35
2022-07-25T04:38:53.472Z,494.15
2022-07-25T04:41:19.764Z,543.53
2022-07-25T04:43:48.785Z,520.38
2022-07-25T04:46:19.990Z,540.42
2022-07-25T04:48:46.470Z,378.63
2022-07-25T04:51:14.492Z,481.48
2022-07-25T04:53:40.807Z,487.63
2022-07-25T04:56:07.213Z,488.52
2022-07-25T04:58:33.538Z,376.45
2022-07-25T05:00:59.946Z,511.88
2022-07-25T05:03:26.322Z,499.15
2022-07-25T05:05:52.719Z,420.35
2022-07-25T05:08:19.060Z,400.02
2022-07-25T05:10:45.355Z,482.80
2022-07-25T05:13:11.692Z,323.20
2022-07-25T05:15:39.452Z,318.27
2022-07-25T05:18:05.768Z,403.10
2022-07-25T05:20:32.063Z,461.75
2022-07-25T05:22:58.407Z,535.03
2022-07-25T05:25:25.395Z,454.55
2022-07-25T05:27:54.573Z,456.40
2022-07-25T05:30:21.164Z,448.02
2022-07-25T05:32:47.516Z,461.52
2022-07-25T05:35:15.543Z,379.15
2022-07-25T05:37:42.146Z,378.50
2022-07-25T05:40:08.673Z,434.90
2022-07-25T05:42:35.221Z,373.33
2022-07-25T05:45:01.912Z,419.02
2022-07-25T05:47:28.351Z,430.25
2022-07-25T05:49:54.912Z,405.17
2022-07-25T05:52:21.281Z,358.60
2022-07-25T05:54:47.608Z,424.48
2022-07-25T05:57:13.939Z,451.30
2022-07-25T05:59:40.318Z,367.45
2022-07-25T06:02:06.676Z,447.75
2022-07-25T06:04:33.374Z,352.10
2022-07-25T06:06:59.818Z,270.70
2022-07-25T06:09:26.127Z,352.38
2022-07-25T06:12:00.565Z,142.40
2022-07-25T06:16:54.133Z,228.30
2022-07-25T06:19:20.420Z,286.08
2022-07-25T06:21:46.757Z,323.38
2022-07-25T06:24:13.066Z,145.18
2022-07-25T06:26:39.447Z,260.10
2022-07-25T06:29:05.831Z,234.82
2022-07-25T06:31:32.267Z,247.93
2022-07-25T06:33:58.631Z,207.80
2022-07-25T06:36:32.248Z,272.63
2022-07-25T06:38:59.324Z,254.00
2022-07-25T06:41:25.616Z,239.88
2022-07-25T06:43:51.903Z,287.60
2022-07-25T06:46:18.288Z,268.38
2022-07-25T06:48:44.732Z,206.93
2022-07-25T06:51:11.095Z,199.30
2022-07-25T06:53:37.437Z,154.23
2022-07-25T06:56:03.904Z,272.08
2022-07-25T06:58:30.259Z,177.02
2022-07-25T07:00:56.689Z,143.65
2022-07-25T07:03:23.117Z,266.13
2022-07-25T07:05:49.562Z,279.08
2022-07-25T07:08:15.876Z,311.52
2022-07-25T07:10:42.664Z,167.95
2022-07-25T07:13:13.770Z,270.77
2022-07-25T07:15:43.697Z,232.65
2022-07-25T07:18:10.056Z,211.77
2022-07-25T07:20:36.390Z,133.05
2022-07-25T07:23:02.825Z,330.88
2022-07-25T07:25:30.497Z,204.10
2022-07-25T07:27:56.840Z,276.98
2022-07-25T07:30:25.979Z,210.73
2022-07-25T07:32:59.953Z,167.63
2022-07-25T07:35:27.462Z,256.20
2022-07-25T07:37:54.525Z,201.20
2022-07-25T07:40:21.807Z,267.70
2022-07-25T07:42:48.739Z,250.20
2022-07-25T07:45:22.799Z,135.88
2022-07-25T07:47:49.900Z,290.92
2022-07-25T07:50:16.940Z,113.63
2022-07-25T07:52:43.791Z,241.70
2022-07-25T07:55:29.433Z,217.48
2022-07-25T07:57:55.935Z,153.88
2022-07-25T08:00:23.019Z,131.90
2022-07-25T08:02:52.345Z,166.30
2022-07-25T08:05:25.755Z,225.77
2022-07-25T08:07:52.089Z,375.42
2022-07-25T08:10:20.024Z,73.60
2022-07-25T08:12:46.558Z,294.50
2022-07-25T08:15:12.893Z,104.60
2022-07-25T08:17:39.182Z,160.63
2022-07-25T08:20:27.863Z,188.75
2022-07-25T08:22:56.658Z,232.57
2022-07-25T08:25:23.344Z,295.98
2022-07-25T08:27:49.790Z,212.77
2022-07-25T08:30:16.974Z,312.40
2022-07-25T08:32:53.939Z,130.57
2022-07-25T08:35:21.079Z,202.15
2022-07-25T08:37:48.116Z,328.63
2022-07-25T08:40:15.387Z,322.45
2022-07-25T08:42:42.166Z,272.20
2022-07-25T08:45:09.655Z,229.73
2022-07-25T08:47:36.876Z,355.02
2022-07-25T08:50:04.927Z,306.15
2022-07-25T08:52:31.736Z,165.55
2022-07-25T08:54:58.391Z,333.90
2022-07-25T08:57:24.679Z,140.25
2022-07-25T08:59:51.058Z,286.52
2022-07-25T09:02:17.529Z,107.15
2022-07-25T09:04:43.977Z,234.63
2022-07-25T09:07:10.310Z,426.98
2022-07-25T09:09:38.480Z,358.45
2022-07-25T09:12:05.979Z,240.75
2022-07-25T09:14:40.377Z,368.10
2022-07-25T09:17:07.809Z,400.13
2022-07-25T09:19:55.824Z,254.68
2022-07-25T09:22:22.524Z,305.83
2022-07-25T09:24:48.994Z,406.42
2022-07-25T09:27:15.536Z,300.30
2022-07-25T09:29:44.934Z,267.00
2022-07-25T09:32:18.608Z,314.95
2022-07-25T09:34:46.195Z,416.67
2022-07-25T09:37:13.313Z,293.92
2022-07-25T09:39:46.103Z,324.83
2022-07-25T09:42:32.138Z,350.25
2022-07-25T09:45:01.676Z,292.70
2022-07-25T09:47:28.008Z,358.52
2022-07-25T09:49:54.420Z,334.73
2022-07-25T09:52:20.743Z,174.52
2022-07-25T09:54:47.037Z,293.95
2022-07-25T09:57:13.433Z,221.60
2022-07-25T09:59:39.811Z,88.15
2022-07-25T10:02:08.791Z,336.08
2022-07-25T10:04:43.242Z,315.10
2022-07-25T10:07:10.387Z,58.22
2022-07-25T10:09:48.387Z,328.70
2022-07-25T10:12:18.134Z,244.27
2022-07-25T10:15:02.716Z,161.05
2022-07-25T10:17:28.990Z,133.25
2022-07-25T10:19:58.726Z,79.78
2022-07-25T10:22:55.126Z,114.68
2022-07-25T10:25:21.991Z,42.67
2022-07-25T10:27:49.465Z,157.88
2022-07-25T10:30:20.361Z,293.98
2022-07-25T10:32:51.191Z,68.65
2022-07-25T10:35:17.589Z,178.15
2022-07-25T10:37:49.000Z,365.73
2022-07-25T10:40:25.153Z,185.77
2022-07-25T10:42:56.070Z,348.85
2022-07-25T10:45:25.896Z,288.35
2022-07-25T10:47:54.436Z,359.95
2022-07-25T10:50:40.258Z,360.83
2022-07-25T10:53:09.178Z,47.38
2022-07-25T10:55:35.973Z,247.05
2022-07-25T10:58:20.306Z,130.82
2022-07-25T11:00:46.729Z,247.60
2022-07-25T11:03:17.864Z,142.77
2022-07-25T11:05:46.543Z,266.13
2022-07-25T11:08:21.687Z,371.23
2022-07-25T11:10:53.024Z,281.10
2022-07-25T11:13:19.359Z,91.25
2022-07-25T11:15:46.648Z,372.80
2022-07-25T11:18:13.071Z,146.60
2022-07-25T11:20:39.529Z,265.80
2022-07-25T11:23:06.639Z,129.82
2022-07-25T11:25:32.988Z,218.80
2022-07-25T11:27:59.894Z,228.18
2022-07-25T11:30:28.940Z,91.05
2022-07-25T11:32:56.315Z,258.15
2022-07-25T11:35:40.915Z,35.67
2022-07-25T11:38:07.304Z,92.28
2022-07-25T11:40:34.054Z,193.05
2022-07-25T11:43:00.643Z,87.43
2022-07-25T11:45:28.660Z,274.00
2022-07-25T11:48:08.972Z,221.23
2022-07-25T11:50:37.030Z,266.15
2022-07-25T11:53:05.000Z,103.97
2022-07-25T11:55:32.499Z,89.97
2022-07-25T11:58:00.002Z,216.82
2022-07-25T12:00:26.469Z,183.15
2022-07-25T12:02:52.920Z,127.70
2022-07-25T12:05:21.056Z,289.20
2022-07-25T12:07:48.399Z,235.63
2022-07-25T12:10:18.652Z,81.10
2022-07-25T12:12:46.054Z,157.77
2022-07-25T12:15:13.954Z,158.75
2022-07-25T12:17:40.703Z,259.23
2022-07-25T12:20:14.009Z,254.25
2022-07-25T12:22:40.638Z,251.57
2022-07-25T12:25:07.631Z,408.27
2022-07-25T12:27:33.955Z,267.45
2022-07-25T12:30:00.271Z,303.55
2022-07-25T12:32:26.586Z,222.57
2022-07-25T12:34:52.969Z,131.38
2022-07-25T12:37:21.573Z,190.40
2022-07-25T12:39:48.157Z,248.38
2022-07-25T12:42:14.517Z,315.83
2022-07-25T12:44:40.871Z,334.98
2022-07-25T12:47:07.181Z,337.52
2022-07-25T12:49:33.475Z,100.68
2022-07-25T12:51:59.918Z,262.98
2022-07-25T12:54:26.259Z,214.65
2022-07-25T12:56:52.640Z,315.60
2022-07-25T12:59:19.158Z,269.90
2022-07-25T13:01:45.521Z,258.40
2022-07-25T13:04:11.912Z,249.80
2022-07-25T13:06:38.900Z,112.95
2022-07-25T13:09:05.926Z,248.57
2022-07-25T13:11:32.407Z,171.82
2022-07-25T13:13:58.701Z,170.40
2022-07-25T13:16:25.167Z,249.63
2022-07-25T13:18:51.962Z,130.25
2022-07-25T13:21:20.036Z,225.32
2022-07-25T13:23:46.824Z,197.52
2022-07-25T13:26:13.186Z,211.05
2022-07-25T13:28:39.523Z,100.10
2022-07-25T13:31:06.967Z,154.55
2022-07-25T13:33:34.019Z,284.52
2022-07-25T13:36:00.346Z,321.55
2022-07-25T13:38:26.679Z,276.92
2022-07-25T13:40:58.446Z,244.20
2022-07-25T13:43:25.207Z,106.65
2022-07-25T13:45:51.571Z,257.45
2022-07-25T13:48:33.445Z,236.68
2022-07-25T13:50:59.887Z,216.75
2022-07-25T13:53:29.980Z,206.57
2022-07-25T13:55:58.210Z,101.82
2022-07-25T13:58:24.664Z,197.88
2022-07-25T14:00:51.046Z,176.80
2022-07-25T14:03:17.357Z,185.48
2022-07-25T14:05:43.706Z,151.95
2022-07-25T14:08:10.028Z,181.88
2022-07-25T14:10:36.335Z,120.20
2022-07-25T14:13:02.907Z,151.55
2022-07-25T14:15:29.252Z,185.50
2022-07-25T14:17:55.535Z,85.57
2022-07-25T14:20:21.953Z,105.50
2022-07-25T14:22:48.257Z,180.57
2022-07-25T14:25:14.551Z,89.30
2022-07-25T14:27:40.885Z,154.20
2022-07-25T14:30:09.005Z,158.70
2022-07-25T14:32:36.009Z,35.30
2022-07-25T14:35:03.004Z,78.13
2022-07-25T14:37:31.277Z,164.45
2022-07-25T14:39:58.646Z,117.80
2022-07-25T14:42:24.972Z,160.10
2022-07-25T14:44:51.288Z,159.40
2022-07-25T14:47:17.878Z,95.40
2022-07-25T14:49:44.198Z,29.67
2022-07-25T14:52:15.031Z,49.17
2022-07-25T14:54:41.468Z,77.35
2022-07-25T14:57:08.257Z,100.55
2022-07-25T14:59:34.679Z,102.72
2022-07-25T15:02:01.348Z,134.10
2022-07-25T15:04:27.683Z,55.95
2022-07-25T15:06:54.026Z,157.80
2022-07-25T15:09:20.950Z,249.20
2022-07-25T15:11:47.561Z,109.03
2022-07-25T15:14:13.873Z,49.97
2022-07-25T15:16:40.422Z,47.72
2022-07-25T15:19:18.057Z,69.50
2022-07-25T15:21:44.916Z,112.43
2022-07-25T15:24:11.758Z,122.72
2022-07-25T15:26:38.355Z,132.68
2022-07-25T15:29:09.536Z,174.60
2022-07-25T15:31:36.821Z,106.97
2022-07-25T15:34:03.245Z,101.78
2022-07-25T15:36:29.981Z,100.97
2022-07-25T15:38:56.569Z,58.78
2022-07-25T15:41:22.935Z,84.07
2022-07-25T15:43:49.247Z,35.45
2022-07-25T15:46:16.324Z,69.45
2022-07-25T15:48:43.507Z,107.72
2022-07-25T15:51:09.995Z,146.63
2022-07-25T15:53:36.325Z,44.88
2022-07-25T15:56:02.773Z,81.50
2022-07-25T15:58:29.067Z,71.35
2022-07-25T16:00:55.509Z,34.17
2022-07-25T16:03:22.517Z,74.18
2022-07-25T16:05:48.841Z,76.88
2022-07-25T16:08:15.542Z,30.92
2022-07-25T16:10:41.922Z,84.93
2022-07-25T16:13:08.260Z,72.15
2022-07-25T16:15:34.914Z,80.68
2022-07-25T16:18:02.876Z,42.25
2022-07-25T16:20:31.230Z,65.72
2022-07-25T16:22:59.014Z,75.43
2022-07-25T16:25:26.343Z,86.13
2022-07-25T16:27:53.188Z,38.65
2022-07-25T16:30:20.133Z,46.72
2022-07-25T16:32:46.598Z,53.50
2022-07-25T16:35:12.973Z,29.73
2022-07-25T16:37:40.020Z,75.70
2022-07-25T16:40:08.090Z,80.28
2022-07-25T16:42:34.780Z,61.10
2022-07-25T16:45:01.094Z,74.47
2022-07-25T16:47:27.558Z,37.28
2022-07-25T16:49:53.845Z,105.70
2022-07-25T16:52:20.187Z,54.95
2022-07-25T16:54:46.534Z,110.38
2022-07-25T16:57:12.848Z,111.68
2022-07-25T16:59:39.164Z,72.93
2022-07-25T17:02:05.564Z,66.20
2022-07-25T17:04:32.113Z,73.00
2022-07-25T17:06:59.585Z,152.75
2022-07-25T17:09:25.884Z,100.22
2022-07-25T17:11:52.244Z,50.72
2022-07-25T17:14:18.714Z,67.43
2022-07-25T17:16:45.265Z,24.75
2022-07-25T17:19:11.705Z,57.83
2022-07-25T17:21:38.118Z,44.15
2022-07-25T17:24:04.646Z,53.80
2022-07-25T17:26:30.968Z,41.85
2022-07-25T17:28:58.372Z,48.08
2022-07-25T17:31:24.817Z,100.82
2022-07-25T17:33:51.258Z,47.35
2022-07-25T17:36:17.554Z,69.80
2022-07-25T17:38:43.899Z,51.10
2022-07-25T17:41:10.191Z,46.08
2022-07-25T17:43:36.616Z,37.85
2022-07-25T17:46:02.996Z,69.20
2022-07-25T17:48:29.461Z,84.55
2022-07-25T17:50:55.813Z,30.60
2022-07-25T17:53:22.127Z,72.90
2022-07-25T17:55:48.476Z,17.27
2022-07-25T17:58:14.784Z,142.90
2022-07-25T18:00:41.152Z,165.40
2022-07-25T18:03:07.592Z,233.77
2022-07-25T18:05:34.160Z,234.82
2022-07-25T18:08:01.744Z,43.33
2022-07-25T18:10:28.326Z,265.45
2022-07-25T18:12:54.652Z,237.57
2022-07-25T18:15:20.971Z,226.15
2022-07-25T18:17:47.962Z,189.20
2022-07-25T18:20:15.218Z,165.82
2022-07-25T18:22:41.761Z,194.07
2022-07-25T18:25:11.141Z,160.18
2022-07-25T18:27:38.169Z,195.07
2022-07-25T18:30:08.255Z,18.63
2022-07-25T18:32:35.092Z,79.15
2022-07-25T18:35:01.576Z,162.60
2022-07-25T18:37:28.001Z,166.27
2022-07-25T18:39:54.584Z,205.30
2022-07-25T18:42:22.280Z,65.30
2022-07-25T18:44:51.319Z,124.78
2022-07-25T18:47:18.363Z,174.02
2022-07-25T18:49:45.056Z,268.83
2022-07-25T18:52:11.342Z,179.95
2022-07-25T18:54:37.651Z,99.75
2022-07-25T18:57:04.544Z,144.07
2022-07-25T18:59:30.883Z,123.45
2022-07-25T19:01:57.238Z,101.25
2022-07-25T19:04:23.639Z,183.07
2022-07-25T19:06:50.026Z,69.30
2022-07-25T19:09:16.471Z,120.95
2022-07-25T19:11:42.819Z,74.45
2022-07-25T19:14:09.532Z,25.65
2022-07-25T19:16:36.351Z,152.00
2022-07-25T19:19:03.518Z,127.38
2022-07-25T19:21:29.858Z,154.32
2022-07-25T19:23:56.225Z,219.98
2022-07-25T19:26:22.651Z,93.82
2022-07-25T19:28:50.093Z,69.93
2022-07-25T19:31:17.091Z,128.60
2022-07-25T19:33:45.616Z,119.93
2022-07-25T19:36:12.692Z,72.88
2022-07-25T19:38:39.021Z,98.95
2022-07-25T19:41:05.494Z,189.45
2022-07-25T19:43:31.840Z,120.05
2022-07-25T19:45:58.384Z,81.30
2022-07-25T19:48:24.805Z,108.75
2022-07-25T19:50:51.618Z,119.18
2022-07-25T19:53:18.090Z,71.43
2022-07-25T19:55:44.498Z,254.30
2022-07-25T19:58:10.898Z,202.70
2022-07-25T20:00:37.684Z,170.15
2022-07-25T20:03:04.743Z,203.77
2022-07-25T20:05:31.340Z,117.10
2022-07-25T20:07:57.750Z,179.85
2022-07-25T20:10:24.994Z,231.55
2022-07-25T20:12:51.567Z,158.20
2022-07-25T20:15:17.912Z,231.45
2022-07-25T20:17:44.405Z,211.85
2022-07-25T20:20:11.085Z,291.17
2022-07-25T20:22:37.712Z,244.38
2022-07-25T20:25:05.631Z,154.18
2022-07-25T20:27:32.021Z,143.90
2022-07-25T20:29:59.989Z,215.60
2022-07-25T20:32:26.303Z,225.48
2022-07-25T20:34:53.071Z,309.10
2022-07-25T20:37:19.397Z,231.00
2022-07-25T20:39:45.731Z,210.57
2022-07-25T20:42:14.571Z,305.38
2022-07-25T20:44:40.984Z,253.15
2022-07-25T20:47:07.303Z,235.52
2022-07-25T20:49:33.771Z,298.20
2022-07-25T20:52:00.291Z,289.92
2022-07-25T20:54:26.621Z,248.60
2022-07-25T20:56:53.083Z,290.65
2022-07-25T20:59:19.439Z,236.68
2022-07-25T21:01:45.814Z,232.50
2022-07-25T21:04:12.202Z,253.75
2022-07-25T21:06:38.491Z,226.30
2022-07-25T21:09:05.846Z,320.13
2022-07-25T21:11:32.646Z,254.75
2022-07-25T21:13:58.976Z,333.25
2022-07-25T21:16:27.232Z,285.02
2022-07-25T21:18:55.862Z,254.20
2022-07-25T21:21:22.202Z,249.93
2022-07-25T21:23:48.622Z,252.88
2022-07-25T21:26:15.263Z,208.65
2022-07-25T21:28:41.626Z,219.98
2022-07-25T21:31:07.930Z,148.45
2022-07-25T21:33:34.297Z,256.85
2022-07-25T21:36:00.666Z,222.98
2022-07-25T21:38:29.566Z,263.13
2022-07-25T21:40:57.695Z,256.80
2022-07-25T21:43:24.548Z,238.82
2022-07-25T21:45:51.307Z,254.02
2022-07-25T21:48:21.975Z,221.00
2022-07-25T21:50:48.559Z,260.95
2022-07-25T21:53:16.788Z,197.43
2022-07-25T21:55:43.106Z,192.95
2022-07-25T21:58:09.460Z,262.42
2022-07-25T22:00:43.833Z,210.95
2022-07-25T22:03:11.777Z,222.57
2022-07-25T22:05:38.126Z,122.85
2022-07-25T22:08:04.657Z,240.38
2022-07-25T22:10:31.042Z,207.00
2022-07-25T22:12:57.364Z,168.30
2022-07-25T22:15:23.789Z,201.55
2022-07-25T22:17:50.335Z,235.70
2022-07-25T22:20:17.384Z,135.75
2022-07-25T22:22:43.698Z,153.43
2022-07-25T22:25:10.009Z,246.88
2022-07-25T22:27:36.418Z,246.98
2022-07-25T22:30:03.452Z,208.93
2022-07-25T22:32:29.759Z,219.82
2022-07-25T22:34:56.047Z,269.88
2022-07-25T22:37:22.341Z,276.92
2022-07-25T22:39:48.667Z,255.43
2022-07-25T22:42:16.092Z,223.18
2022-07-25T22:44:42.765Z,235.55
2022-07-25T22:47:09.052Z,243.63
2022-07-25T22:49:35.410Z,207.75
2022-07-25T22:52:01.783Z,220.23
2022-07-25T22:54:28.092Z,223.38
2022-07-25T22:56:54.405Z,229.90
2022-07-25T22:59:20.751Z,227.15
2022-07-25T23:01:47.184Z,222.27
2022-07-25T23:04:13.660Z,225.68
2022-07-25T23:06:40.051Z,151.88
2022-07-25T23:09:06.586Z,175.55
2022-07-25T23:11:33.116Z,231.02
2022-07-25T23:13:59.523Z,209.57
2022-07-25T23:16:27.594Z,274.98
2022-07-25T23:18:54.536Z,262.80
2022-07-25T23:21:21.015Z,244.15
2022-07-25T23:23:47.452Z,224.15
2022-07-25T23:26:13.854Z,185.70
2022-07-25T23:28:40.304Z,103.60
2022-07-25T23:31:06.756Z,249.18
2022-07-25T23:33:33.190Z,171.88
2022-07-25T23:35:59.511Z,263.40
2022-07-25T23:38:25.807Z,114.35
2022-07-25T23:40:54.084Z,246.82
2022-07-25T23:43:34.816Z,247.55
2022-07-25T23:46:07.451Z,252.70
2022-07-25T23:48:34.504Z,197.57
2022-07-25T23:51:01.121Z,132.82
2022-07-25T23:53:27.440Z,178.77
2022-07-25T23:55:53.983Z,278.23
2022-07-25T23:58:20.314Z,183.48
